createdAt,value
2023-03-13T17:29:36.369Z,63.08
2023-03-13T17:32:10.860Z,63.12
2023-03-13T17:37:24.744Z,63.28
2023-03-13T17:39:57.685Z,63.38
2023-03-13T17:42:30.668Z,63.45
2023-03-13T17:45:06.722Z,63.54
2023-03-13T17:47:41.373Z,63.62
2023-03-13T17:50:20.624Z,63.63
2023-03-13T17:52:54.050Z,63.64
2023-03-13T17:55:26.981Z,63.70
2023-03-13T17:58:00.924Z,63.80
2023-03-13T18:00:35.405Z,63.77
2023-03-13T18:03:08.526Z,63.80
2023-03-13T18:05:44.326Z,63.86
2023-03-13T18:08:17.510Z,63.85
2023-03-13T18:10:50.508Z,63.87
2023-03-13T18:13:23.849Z,63.92
2023-03-13T18:16:00.323Z,63.95
2023-03-13T18:18:33.292Z,63.97
2023-03-13T18:21:11.514Z,64.06
2023-03-13T18:23:44.688Z,64.07
2023-03-13T18:26:30.792Z,64.10
2023-03-13T18:29:05.546Z,64.19
2023-03-13T18:31:40.590Z,64.19
2023-03-13T18:34:15.383Z,64.30
2023-03-13T18:36:48.594Z,64.30
2023-03-13T18:39:21.838Z,64.26
2023-03-13T18:41:55.185Z,64.32
2023-03-13T18:44:28.275Z,64.33
2023-03-13T18:47:01.360Z,64.37
2023-03-13T18:49:34.373Z,64.38
2023-03-13T18:52:07.881Z,64.37
2023-03-13T18:54:40.952Z,64.34
2023-03-13T18:57:16.525Z,64.38
2023-03-13T18:59:50.935Z,64.39
2023-03-13T19:02:23.951Z,64.37
2023-03-13T19:04:56.902Z,64.32
2023-03-13T19:07:30.302Z,64.25
2023-03-13T19:10:04.478Z,64.26
2023-03-13T19:12:37.512Z,64.26
2023-03-13T19:18:01.615Z,64.22
2023-03-13T19:20:34.388Z,64.25
2023-03-13T19:23:07.379Z,64.17
2023-03-13T19:25:40.224Z,64.19
2023-03-13T19:28:13.576Z,64.14
2023-03-13T19:30:47.825Z,64.11
2023-03-13T19:33:20.991Z,64.09
2023-03-13T19:35:54.232Z,64.11
2023-03-13T19:38:27.556Z,64.10
2023-03-13T19:41:01.256Z,64.03
2023-03-13T19:43:35.650Z,63.93
2023-03-13T19:46:25.655Z,63.94
2023-03-13T19:49:01.260Z,63.92
2023-03-13T19:54:16.385Z,63.94
2023-03-13T19:56:50.627Z,63.95
2023-03-13T19:59:26.845Z,63.99
2023-03-13T20:02:01.438Z,63.98
2023-03-13T20:04:37.108Z,63.98
2023-03-13T20:07:10.096Z,63.99
2023-03-13T20:09:43.202Z,64.00
2023-03-13T20:12:16.304Z,64.02
2023-03-13T20:14:51.890Z,63.97
2023-03-13T20:17:24.932Z,64.00
2023-03-13T20:19:57.901Z,64.00
2023-03-13T20:22:31.192Z,64.02
2023-03-13T20:25:04.309Z,64.03
2023-03-13T20:27:37.450Z,64.03
2023-03-13T20:30:13.425Z,64.07
2023-03-13T20:32:58.878Z,64.08
2023-03-13T20:35:21.257Z,64.08
2023-03-13T20:37:54.737Z,64.09
2023-03-13T20:40:27.894Z,64.10
2023-03-13T20:43:01.641Z,64.08
2023-03-13T20:45:34.763Z,64.05
2023-03-13T20:48:08.495Z,64.05
2023-03-13T20:50:41.379Z,64.02
2023-03-13T20:53:15.649Z,64.02
2023-03-13T20:55:49.213Z,64.05
2023-03-13T20:58:22.278Z,63.95
2023-03-13T21:00:55.245Z,63.96
2023-03-13T21:03:28.565Z,63.89
2023-03-13T21:06:04.027Z,63.83
2023-03-13T21:08:38.873Z,63.83
2023-03-13T21:11:16.377Z,63.80
2023-03-13T21:13:50.425Z,63.78
2023-03-13T21:16:23.585Z,63.75
2023-03-13T21:18:56.672Z,63.70
2023-03-13T21:21:30.183Z,63.70
2023-03-13T21:24:03.270Z,63.70
2023-03-13T21:26:36.355Z,63.64
2023-03-13T21:29:11.023Z,63.59
2023-03-13T21:31:44.179Z,63.54
2023-03-13T21:34:17.166Z,63.47
2023-03-13T21:36:50.150Z,63.42
2023-03-13T21:39:23.553Z,63.39
2023-03-13T21:41:57.408Z,63.41
2023-03-13T21:44:31.774Z,63.39
2023-03-13T21:47:04.737Z,63.36
2023-03-13T21:49:40.566Z,63.41
2023-03-13T21:52:13.904Z,63.42
2023-03-13T21:54:47.405Z,63.41
2023-03-13T21:57:20.530Z,63.33
2023-03-13T21:59:56.131Z,63.38
2023-03-13T22:02:29.678Z,63.41
2023-03-13T22:07:55.521Z,63.39
2023-03-13T22:10:28.629Z,63.37
2023-03-13T22:13:01.690Z,63.38
2023-03-13T22:15:35.158Z,63.38
2023-03-13T22:18:08.455Z,63.39
2023-03-13T22:20:41.472Z,63.30
2023-03-13T22:23:14.988Z,63.26
2023-03-13T22:25:50.676Z,63.23
2023-03-13T22:28:23.832Z,63.17
2023-03-13T22:30:56.822Z,63.09
2023-03-13T22:33:30.126Z,63.08
2023-03-13T22:36:04.112Z,62.96
2023-03-13T22:38:39.143Z,62.82
2023-03-13T22:41:15.099Z,62.63
2023-03-13T22:43:48.239Z,62.56
2023-03-13T22:46:21.300Z,62.36
2023-03-13T22:48:54.443Z,62.16
2023-03-13T22:51:27.385Z,62.22
2023-03-13T22:54:00.459Z,62.32
2023-03-13T22:56:33.365Z,62.33
2023-03-13T22:59:06.337Z,61.86
2023-03-13T23:01:39.427Z,61.67
2023-03-13T23:04:12.382Z,61.53
2023-03-13T23:06:47.925Z,61.58
2023-03-13T23:09:20.908Z,61.50
2023-03-13T23:11:53.883Z,61.32
2023-03-13T23:14:28.634Z,61.21
2023-03-13T23:17:01.872Z,61.12
2023-03-13T23:19:37.697Z,61.15
2023-03-13T23:22:13.249Z,60.95
2023-03-13T23:24:46.554Z,60.92
2023-03-13T23:27:24.036Z,60.96
2023-03-13T23:29:57.369Z,61.08
2023-03-13T23:32:30.916Z,61.23
2023-03-13T23:35:04.660Z,61.05
2023-03-13T23:37:38.389Z,61.03
2023-03-13T23:40:13.666Z,61.12
2023-03-13T23:42:51.650Z,61.11
2023-03-13T23:45:24.865Z,61.16
2023-03-13T23:47:58.294Z,61.31
2023-03-13T23:50:31.883Z,61.28
2023-03-13T23:53:05.190Z,61.37
2023-03-13T23:55:38.333Z,61.48
2023-03-13T23:58:11.444Z,61.59
